Time;durP1;ratioP1;P1;durP2;ratioP2;P2;SDS_P1;SDS_P2;PMS_P1;PMS_P2;Temp;Humidity;BMP_temperature;BMP_pressure;BME280_temperature;BME280_humidity;BME280_pressure;Samples;Min_cycle;Max_cycle;Signal;HPM_P1;HPM_P2
2023/10/17 00:02:35;;;;;;;;;;;;;;;6.72;100.00;102224.13;4928381;29;20386;-79
2023/10/17 00:05:23;;;;;;;;;;;;;;;6.72;100.00;102224.13;4919589;29;20089;-79
2023/10/17 00:08:12;;;;;;;;;;;;;;;6.70;100.00;102212.75;4930981;28;19930;-79
2023/10/17 00:11:07;;;;;;;;;;;;;;;6.68;100.00;102222.38;4915191;29;19937;-79
2023/10/17 00:13:59;;;;;;;;;;;;;;;6.65;100.00;102211.00;4929951;29;19934;-79
2023/10/17 00:16:45;;;;;;;;;;;;;;;6.61;100.00;102209.28;4895328;29;20095;-79
2023/10/17 00:19:31;;;;;;;;;;;;;;;6.58;100.00;102209.28;4920674;29;19931;-79
2023/10/17 00:22:23;;;;;;;;;;;;;;;6.56;100.00;102210.19;4928379;28;19938;-79
2023/10/17 00:25:10;;;;;;;;;;;;;;;6.55;100.00;102208.44;4925140;29;20670;-79
2023/10/17 00:27:57;;;;;;;;;;;;;;;6.58;100.00;102208.44;4912560;29;20410;-79
2023/10/17 00:30:42;;;;;;;;;;;;;;;6.61;100.00;102206.66;4927644;29;19931;-79
2023/10/17 00:33:28;;;;;;;;;;;;;;;6.64;100.00;102201.38;4925971;29;19930;-79
2023/10/17 00:36:16;;;;;;;;;;;;;;;6.65;100.00;102200.47;4913659;29;20333;-78
2023/10/17 00:39:11;;;;;;;;;;;;;;;6.63;100.00;102194.34;4911629;29;20017;-79
2023/10/17 00:44:52;;;;;;;;;;;;;;;6.61;100.00;102196.13;4926100;29;19953;-79
2023/10/17 00:47:38;;;;;;;;;;;;;;;6.60;100.00;102191.72;4928900;28;20021;-79
2023/10/17 00:50:23;;;;;;;;;;;;;;;6.63;100.00;102193.47;4913050;29;19930;-79
2023/10/17 00:53:11;;;;;;;;;;;;;;;6.62;100.00;102195.25;4929250;29;20043;-78
2023/10/17 00:55:57;;;;;;;;;;;;;;;6.64;100.00;102187.31;4917900;29;20398;-78
2023/10/17 00:58:42;;;;;;;;;;;;;;;6.66;100.00;102188.19;4928006;29;19946;-79
2023/10/17 01:01:32;;;;;;;;;;;;;;;6.65;100.00;102176.78;4925865;28;20567;-79
2023/10/17 01:04:19;;;;;;;;;;;;;;;6.64;100.00;102190.84;4915187;29;19935;-82
2023/10/17 01:07:10;;;;;;;;;;;;;;;6.66;100.00;102189.06;4919617;29;19941;-79
2023/10/17 01:10:00;;;;;;;;;;;;;;;6.66;100.00;102186.44;4937678;29;21537;-79
2023/10/17 01:13:05;;;;;;;;;;;;;;;6.65;100.00;102184.69;4908977;29;20084;-79
2023/10/17 01:15:52;;;;;;;;;;;;;;;6.68;100.00;102185.53;4920198;28;20472;-79
2023/10/17 01:18:38;;;;;;;;;;;;;;;6.65;100.00;102182.06;4919889;29;20063;-79
2023/10/17 01:21:26;;;;;;;;;;;;;;;6.65;100.00;102182.06;4935044;29;19926;-80
2023/10/17 01:24:12;;;;;;;;;;;;;;;6.62;100.00;102182.09;4935135;28;19945;-80
2023/10/17 01:26:59;;;;;;;;;;;;;;;6.60;100.00;102178.56;4921225;29;19937;-80
2023/10/17 01:29:44;;;;;;;;;;;;;;;6.58;100.00;102185.63;4935371;28;19937;-79
2023/10/17 01:32:30;;;;;;;;;;;;;;;6.57;100.00;102181.25;4934850;29;20394;-79
2023/10/17 01:35:22;;;;;;;;;;;;;;;6.57;100.00;102180.34;4934721;29;20387;-79
2023/10/17 01:38:08;;;;;;;;;;;;;;;6.57;100.00;102180.34;4922398;29;19934;-80
2023/10/17 01:40:57;;;;;;;;;;;;;;;6.57;100.00;102173.34;4935718;29;19950;-79
2023/10/17 01:43:45;;;;;;;;;;;;;;;6.57;100.00;102177.72;4937858;28;20005;-79
2023/10/17 01:46:33;;;;;;;;;;;;;;;6.57;100.00;102183.88;4936886;29;19981;-80
2023/10/17 01:49:19;;;;;;;;;;;;;;;6.56;100.00;102176.88;4937960;28;19962;-80
2023/10/17 01:52:08;;;;;;;;;;;;;;;6.52;100.00;102172.50;4941331;29;20600;-79
2023/10/17 01:54:53;;;;;;;;;;;;;;;6.47;100.00;102162.00;4940270;29;19930;-80
2023/10/17 01:57:46;;;;;;;;;;;;;;;6.48;100.00;102155.00;4938964;29;19950;-79
2023/10/17 02:03:17;;;;;;;;;;;;;;;6.41;100.00;102148.91;4935805;29;20021;-79
2023/10/17 02:06:13;;;;;;;;;;;;;;;6.37;100.00;102150.69;4935583;29;19930;-78
2023/10/17 02:08:59;;;;;;;;;;;;;;;6.35;100.00;102156.81;4921192;29;20025;-78
2023/10/17 02:11:50;;;;;;;;;;;;;;;6.30;100.00;102154.22;4918718;29;20006;-78
2023/10/17 02:14:37;;;;;;;;;;;;;;;6.29;100.00;102163.00;4914337;29;19935;-78
2023/10/17 02:17:23;;;;;;;;;;;;;;;6.24;100.00;102154.28;4936951;28;19931;-79
2023/10/17 02:20:19;;;;;;;;;;;;;;;6.22;100.00;102161.31;4931504;29;19941;-79
2023/10/17 02:23:19;;;;;;;;;;;;;;;6.18;100.00;102162.19;4921184;28;19922;-78
2023/10/17 02:26:10;;;;;;;;;;;;;;;6.11;100.00;102175.38;4933021;28;19961;-79
2023/10/17 02:29:10;;;;;;;;;;;;;;;6.05;100.00;102170.16;4935817;28;19918;-80
2023/10/17 02:31:57;;;;;;;;;;;;;;;5.99;100.00;102175.41;4935714;28;19966;-79
2023/10/17 02:34:46;;;;;;;;;;;;;;;5.92;100.00;102174.56;4936887;28;20377;-78
2023/10/17 02:37:32;;;;;;;;;;;;;;;5.87;100.00;102178.13;4935996;28;19954;-78
2023/10/17 02:40:20;;;;;;;;;;;;;;;5.81;100.00;102171.09;4920305;29;20057;-79
2023/10/17 02:43:06;;;;;;;;;;;;;;;5.76;100.00;102168.50;4923233;29;19926;-78
2023/10/17 02:46:04;;;;;;;;;;;;;;;5.71;100.00;102165.00;4935390;28;20012;-79
2023/10/17 02:48:51;;;;;;;;;;;;;;;5.66;100.00;102166.81;4937456;29;19934;-79
2023/10/17 02:51:38;;;;;;;;;;;;;;;5.60;100.00;102166.81;4922192;29;19943;-79
2023/10/17 02:54:27;;;;;;;;;;;;;;;5.54;100.00;102168.59;4927032;29;19977;-79
2023/10/17 02:57:16;;;;;;;;;;;;;;;5.49;100.00;102175.59;4934748;29;20409;-79
2023/10/17 03:00:20;;;;;;;;;;;;;;;5.44;100.00;102165.09;4938336;29;19933;-79
2023/10/17 03:03:12;;;;;;;;;;;;;;;5.40;100.00;102165.13;4936105;28;19942;-79
2023/10/17 03:05:59;;;;;;;;;;;;;;;5.35;100.00;102172.13;4939123;29;19926;-80
2023/10/17 03:08:51;;;;;;;;;;;;;;;5.30;100.00;102165.13;4935163;29;20210;-79
2023/10/17 03:11:47;;;;;;;;;;;;;;;5.26;100.00;102162.53;4924321;29;19942;-79
2023/10/17 03:17:30;;;;;;;;;;;;;;;5.17;100.00;102173.91;4935742;29;20018;-80
2023/10/17 03:20:16;;;;;;;;;;;;;;;5.12;100.00;102175.69;4940030;29;20313;-79
2023/10/17 03:23:08;;;;;;;;;;;;;;;5.06;100.00;102175.69;4936041;29;19935;-80
2023/10/17 03:26:00;;;;;;;;;;;;;;;4.99;100.00;102178.31;4925946;28;19942;-79
2023/10/17 03:28:46;;;;;;;;;;;;;;;4.95;100.00;102168.69;4926792;29;19968;-79
2023/10/17 03:31:32;;;;;;;;;;;;;;;4.92;100.00;102173.94;4924133;29;19973;-79
2023/10/17 03:34:21;;;;;;;;;;;;;;;4.89;100.00;102179.19;4940532;28;19935;-79
2023/10/17 03:43:37;;;;;;;;;;;;;;;4.76;100.00;102179.16;4919350;29;19966;-79
2023/10/17 03:46:26;;;;;;;;;;;;;;;4.76;100.00;102175.69;4938305;29;20171;-80
2023/10/17 03:49:15;;;;;;;;;;;;;;;4.75;100.00;102179.19;4921470;29;20382;-80
2023/10/17 03:52:03;;;;;;;;;;;;;;;4.75;100.00;102184.44;4923649;29;19974;-79
2023/10/17 03:54:49;;;;;;;;;;;;;;;4.79;100.00;102183.56;4935858;29;19926;-79
2023/10/17 03:57:39;;;;;;;;;;;;;;;4.85;100.00;102195.81;4919377;29;19927;-79
2023/10/17 04:00:40;;;;;;;;;;;;;;;4.90;100.00;102191.44;4933337;29;20013;-79
2023/10/17 04:03:27;;;;;;;;;;;;;;;4.94;100.00;102193.19;4922626;28;20418;-79
2023/10/17 04:06:20;;;;;;;;;;;;;;;5.02;100.00;102194.06;4917768;29;19990;-79
2023/10/17 04:12:18;;;;;;;;;;;;;;;5.14;100.00;102201.03;4923771;29;19943;-80
2023/10/17 04:15:07;;;;;;;;;;;;;;;5.18;100.00;102201.94;4924095;29;20294;-80
2023/10/17 04:17:52;;;;;;;;;;;;;;;5.21;100.00;102201.91;4933656;29;19935;-78
2023/10/17 04:20:38;;;;;;;;;;;;;;;5.22;100.00;102198.41;4926447;29;19937;-79
2023/10/17 04:23:27;;;;;;;;;;;;;;;5.25;100.00;102203.69;4924483;29;19925;-78
2023/10/17 04:26:18;;;;;;;;;;;;;;;5.27;100.00;102204.53;4912931;29;19959;-77
2023/10/17 04:29:13;;;;;;;;;;;;;;;5.28;100.00;102206.28;4936524;29;19931;-78
2023/10/17 04:32:01;;;;;;;;;;;;;;;5.30;100.00;102190.53;4934839;29;19933;-79
2023/10/17 04:34:47;;;;;;;;;;;;;;;5.30;100.00;102190.53;4920802;29;19930;-78
2023/10/17 04:37:32;;;;;;;;;;;;;;;5.28;100.00;102194.88;4919680;29;19950;-79
2023/10/17 04:40:37;;;;;;;;;;;;;;;5.28;100.00;102197.53;4934260;28;19986;-79
2023/10/17 04:43:44;;;;;;;;;;;;;;;5.25;100.00;102193.16;4923462;29;20021;-79
2023/10/17 04:46:30;;;;;;;;;;;;;;;5.24;100.00;102191.41;4925068;29;19985;-79
2023/10/17 04:49:20;;;;;;;;;;;;;;;5.23;100.00;102188.78;4932600;29;19937;-80
2023/10/17 04:52:06;;;;;;;;;;;;;;;5.23;100.00;102194.91;4937561;28;19989;-77
2023/10/17 04:54:53;;;;;;;;;;;;;;;5.22;100.00;102194.94;4919853;29;19933;-79
2023/10/17 04:57:54;;;;;;;;;;;;;;;5.20;100.00;102197.53;4917969;29;20148;-79
2023/10/17 05:00:52;;;;;;;;;;;;;;;5.21;100.00;102196.66;4935793;28;20001;-80
2023/10/17 05:03:50;;;;;;;;;;;;;;;5.23;100.00;102200.16;4934017;28;19987;-79
2023/10/17 05:07:07;;;;;;;;;;;;;;;5.22;100.00;102203.66;4934809;29;20386;-80
2023/10/17 06:17:40;;;;;;;;;;;;;;;5.13;100.00;102182.69;4935032;28;21588;-79
2023/10/17 06:21:01;;;;;;;;;;;;;;;5.11;100.00;102180.03;4933820;28;19935;-79
2023/10/17 06:35:09;;;;;;;;;;;;;;;5.17;100.00;102179.16;4920071;29;20021;-79
2023/10/17 06:37:57;;;;;;;;;;;;;;;5.14;100.00;102179.19;4933565;28;19935;-79
2023/10/17 06:40:51;;;;;;;;;;;;;;;5.12;100.00;102183.56;4917984;29;19972;-79
2023/10/17 06:43:38;;;;;;;;;;;;;;;5.11;100.00;102193.19;4918441;29;20073;-78
2023/10/17 06:46:36;;;;;;;;;;;;;;;5.14;100.00;102193.16;4933900;29;20357;-79
2023/10/17 06:55:44;;;;;;;;;;;;;;;5.18;100.00;102196.69;4935903;29;19930;-81
2023/10/17 06:58:32;;;;;;;;;;;;;;;5.19;100.00;102190.56;4936735;29;20350;-82
2023/10/17 07:01:27;;;;;;;;;;;;;;;5.19;100.00;102190.56;4904726;28;19930;-81
2023/10/17 07:04:13;;;;;;;;;;;;;;;5.20;100.00;102187.03;4929779;28;19930;-80
2023/10/17 07:07:03;;;;;;;;;;;;;;;5.21;100.00;102182.66;4931499;29;19930;-80
2023/10/17 07:09:52;;;;;;;;;;;;;;;5.21;100.00;102188.78;4933974;29;20385;-80
2023/10/17 07:12:41;;;;;;;;;;;;;;;5.23;100.00;102191.41;4918292;29;20013;-81
2023/10/17 07:15:29;;;;;;;;;;;;;;;5.26;100.00;102191.41;4933622;29;19977;-79
2023/10/17 07:21:55;;;;;;;;;;;;;;;5.32;100.00;102198.41;4909555;29;19938;-79
2023/10/17 07:24:48;;;;;;;;;;;;;;;5.33;100.00;102197.53;4933920;28;19930;-80
2023/10/17 07:27:34;;;;;;;;;;;;;;;5.32;100.00;102203.66;4936534;29;19957;-80
2023/10/17 07:30:34;;;;;;;;;;;;;;;5.35;100.00;102201.03;4920390;28;19937;-80
2023/10/17 07:33:23;;;;;;;;;;;;;;;5.34;100.00;102201.91;4927956;29;20005;-79
2023/10/17 07:36:18;;;;;;;;;;;;;;;5.32;100.00;102201.91;4933681;28;19965;-80
2023/10/17 07:39:06;;;;;;;;;;;;;;;5.33;100.00;102208.91;4930110;29;19930;-79
2023/10/17 07:41:58;;;;;;;;;;;;;;;5.35;100.00;102206.28;4913611;29;20409;-79
2023/10/17 07:44:43;;;;;;;;;;;;;;;5.38;100.00;102203.63;4910163;29;20457;-79
2023/10/17 07:47:35;;;;;;;;;;;;;;;5.42;100.00;102208.00;4922792;29;20762;-79
2023/10/17 07:50:25;;;;;;;;;;;;;;;5.47;100.00;102214.13;4917397;29;20318;-80
2023/10/17 07:53:11;;;;;;;;;;;;;;;5.50;100.00;102203.59;4931337;28;19938;-80
2023/10/17 07:56:12;;;;;;;;;;;;;;;5.54;100.00;102218.50;4931166;29;20036;-80
2023/10/17 07:59:08;;;;;;;;;;;;;;;5.60;100.00;102214.13;4926756;29;19930;-80
2023/10/17 08:01:58;;;;;;;;;;;;;;;5.66;100.00;102222.00;4929699;28;19930;-80
2023/10/17 08:04:44;;;;;;;;;;;;;;;5.72;100.00;102221.94;4934107;29;20306;-80
2023/10/17 08:07:29;;;;;;;;;;;;;;;5.78;100.00;102218.44;4921412;29;21868;-80
2023/10/17 08:10:29;;;;;;;;;;;;;;;5.82;100.00;102215.78;4937456;29;19926;-80
2023/10/17 08:13:15;;;;;;;;;;;;;;;5.91;100.00;102206.13;4915235;29;19972;-78
2023/10/17 08:16:05;;;;;;;;;;;;;;;5.97;100.00;102198.19;4937598;28;19926;-80
2023/10/17 08:18:58;;;;;;;;;;;;;;;6.02;100.00;102201.72;4940233;29;19982;-80
2023/10/17 08:22:10;;;;;;;;;;;;;;;6.08;100.00;102206.06;4937228;29;19954;-79
2023/10/17 08:24:58;;;;;;;;;;;;;;;6.18;100.00;102196.38;4915275;29;19937;-79
2023/10/17 08:27:46;;;;;;;;;;;;;;;6.25;100.00;102192.84;4938790;29;19934;-79
2023/10/17 08:30:38;;;;;;;;;;;;;;;6.34;100.00;102187.53;4937195;29;19934;-79
2023/10/17 08:33:36;;;;;;;;;;;;;;;6.42;100.00;102186.63;4922843;29;20060;-79
2023/10/17 08:36:23;;;;;;;;;;;;;;;6.51;100.00;102190.06;4937583;29;19962;-80
2023/10/17 08:39:31;;;;;;;;;;;;;;;6.57;100.00;102183.88;4922511;29;19931;-79
2023/10/17 08:42:25;;;;;;;;;;;;;;;6.65;100.00;102191.72;4937045;28;19955;-79
2023/10/17 08:45:15;;;;;;;;;;;;;;;6.74;100.00;102206.53;4933146;29;19931;-77
2023/10/17 08:48:00;;;;;;;;;;;;;;;6.78;100.00;102187.22;4908885;29;19930;-79
2023/10/17 08:50:46;;;;;;;;;;;;;;;6.83;100.00;102188.06;4918837;29;19938;-79
2023/10/17 08:53:32;;;;;;;;;;;;;;;6.88;100.00;102202.06;4922034;29;19969;-80
2023/10/17 08:56:19;;;;;;;;;;;;;;;6.97;100.00;102202.88;4907838;29;19937;-80
2023/10/17 08:59:05;;;;;;;;;;;;;;;7.04;100.00;102197.53;4919780;29;20021;-79
2023/10/17 09:02:01;;;;;;;;;;;;;;;7.11;100.00;102205.38;4923320;29;20404;-79
2023/10/17 09:04:49;;;;;;;;;;;;;;;7.18;100.00;102207.94;4922047;29;19941;-80
2023/10/17 09:07:47;;;;;;;;;;;;;;;7.27;100.00;102201.72;4923868;28;19931;-79
2023/10/17 09:10:41;;;;;;;;;;;;;;;7.36;100.00;102203.41;4935616;29;19933;-80
2023/10/17 09:16:18;;;;;;;;;;;;;;;7.51;100.00;102204.97;4918573;29;20259;-79
2023/10/17 09:19:10;;;;;;;;;;;;;;;7.60;100.00;102204.00;4935966;29;19942;-78
2023/10/17 09:21:59;;;;;;;;;;;;;;;7.69;100.00;102201.25;4919855;29;20431;-79
2023/10/17 09:24:56;;;;;;;;;;;;;;;7.73;100.00;102205.63;4935866;29;19922;-78
2023/10/17 09:27:44;;;;;;;;;;;;;;;7.77;100.00;102208.19;4933279;29;20686;-80
2023/10/17 09:30:33;;;;;;;;;;;;;;;7.81;100.00;102202.91;4919833;29;19938;-79
2023/10/17 09:33:30;;;;;;;;;;;;;;;7.86;100.00;102205.47;4922224;28;20343;-78
2023/10/17 09:36:19;;;;;;;;;;;;;;;7.92;100.00;102205.41;4934948;29;19937;-78
2023/10/17 09:39:05;;;;;;;;;;;;;;;8.00;100.00;102203.53;4932703;29;19926;-80
2023/10/17 09:41:51;;;;;;;;;;;;;;;8.06;100.00;102202.56;4920201;29;20294;-79
2023/10/17 09:44:38;;;;;;;;;;;;;;;8.12;100.00;102206.91;4934665;28;20021;-79
2023/10/17 09:47:23;;;;;;;;;;;;;;;8.17;100.00;102207.69;4917504;29;19961;-79
2023/10/17 09:50:10;;;;;;;;;;;;;;;8.21;100.00;102206.78;4919711;29;19956;-79
2023/10/17 09:52:56;;;;;;;;;;;;;;;8.26;100.00;102218.16;4932078;29;19933;-79
2023/10/17 09:55:49;;;;;;;;;;;;;;;8.32;100.00;102208.41;4918359;29;19927;-79
2023/10/17 09:58:42;;;;;;;;;;;;;;;8.36;100.00;102210.97;4911489;29;20493;-77
2023/10/17 10:01:28;;;;;;;;;;;;;;;8.43;100.00;102201.19;4932838;29;20334;-78
2023/10/17 10:04:13;;;;;;;;;;;;;;;8.44;100.00;102195.00;4907339;29;19931;-79
2023/10/17 10:07:18;;;;;;;;;;;;;;;8.46;100.00;102185.31;4934183;28;19930;-79
2023/10/17 10:10:09;;;;;;;;;;;;;;;8.49;100.00;102185.25;4917089;29;19938;-79
2023/10/17 10:12:59;;;;;;;;;;;;;;;8.54;100.00;102186.09;4928948;29;20082;-78
2023/10/17 10:15:51;;;;;;;;;;;;;;;8.58;100.00;102186.03;4918790;29;19934;-78
2023/10/17 10:18:42;;;;;;;;;;;;;;;8.61;100.00;102175.47;4933069;29;20036;-79
2023/10/17 10:21:48;;;;;;;;;;;;;;;8.64;100.00;102176.28;4934233;29;19930;-79
2023/10/17 10:24:36;;;;;;;;;;;;;;;8.66;100.00;102177.13;4934413;28;20370;-78
2023/10/17 10:27:25;;;;;;;;;;;;;;;8.71;100.00;102176.19;4917886;29;19950;-79
2023/10/17 10:30:36;;;;;;;;;;;;;;;8.76;100.00;102174.34;4934241;28;20394;-79
2023/10/17 10:33:22;;;;;;;;;;;;;;;8.81;100.00;102181.28;4934710;29;20305;-79
2023/10/17 10:36:08;;;;;;;;;;;;;;;8.82;100.00;102172.47;4917390;29;19927;-80
2023/10/17 10:38:58;;;;;;;;;;;;;;;8.83;100.00;102168.91;4917365;29;19926;-78
2023/10/17 10:41:56;;;;;;;;;;;;;;;8.87;100.00;102160.97;4918418;29;19984;-78
2023/10/17 10:44:42;;;;;;;;;;;;;;;8.87;100.00;102161.81;4934680;29;19922;-78
2023/10/17 10:47:31;;;;;;;;;;;;;;;8.93;100.00;102163.50;4931394;28;19935;-79
2023/10/17 10:50:17;;;;;;;;;;;;;;;8.94;100.00;102152.88;4917751;29;19935;-78
2023/10/17 10:53:18;;;;;;;;;;;;;;;8.98;100.00;102160.78;4930249;29;19994;-79
2023/10/17 10:56:04;;;;;;;;;;;;;;;9.04;100.00;102150.09;4929901;28;19926;-80
2023/10/17 10:58:55;;;;;;;;;;;;;;;9.12;100.00;102163.16;4931333;28;19981;-79
2023/10/17 11:01:40;;;;;;;;;;;;;;;9.15;100.00;102163.09;4917233;29;19937;-79
2023/10/17 11:04:26;;;;;;;;;;;;;;;9.18;100.00;102157.75;4906471;28;19966;-79
2023/10/17 11:07:21;;;;;;;;;;;;;;;9.20;100.00;102146.25;4918901;29;19937;-79
2023/10/17 11:10:11;;;;;;;;;;;;;;;9.23;100.00;102140.94;4917826;29;19930;-78
2023/10/17 11:12:56;;;;;;;;;;;;;;;9.22;100.00;102138.31;4922524;29;20465;-79
2023/10/17 11:15:46;;;;;;;;;;;;;;;9.22;100.00;102133.88;4932935;29;19923;-79
2023/10/17 11:18:34;;;;;;;;;;;;;;;9.21;100.00;102129.50;4935065;29;19932;-80
2023/10/17 11:21:21;;;;;;;;;;;;;;;9.20;100.00;102124.22;4932300;28;20555;-78
2023/10/17 11:24:09;;;;;;;;;;;;;;;9.18;100.00;102116.34;4932597;29;19931;-79
2023/10/17 11:26:55;;;;;;;;;;;;;;;9.21;100.00;102126.84;4918136;29;20069;-79
2023/10/17 11:29:42;;;;;;;;;;;;;;;9.23;100.00;102124.19;4932607;29;19923;-78
2023/10/17 11:32:39;;;;;;;;;;;;;;;9.27;100.00;102120.59;4919187;29;19934;-79
2023/10/17 11:35:31;;;;;;;;;;;;;;;9.30;100.00;102120.53;4918176;29;19981;-79
2023/10/17 11:38:37;;;;;;;;;;;;;;;9.31;100.00;102116.13;4933409;29;19931;-77
2023/10/17 11:41:31;;;;;;;;;;;;;;;9.35;100.00;102110.75;4920132;29;19931;-78
2023/10/17 11:44:18;;;;;;;;;;;;;;;9.39;100.00;102111.53;4918114;29;19931;-78
2023/10/17 11:47:18;;;;;;;;;;;;;;;9.42;100.00;102116.75;4918302;29;19933;-79
2023/10/17 11:50:05;;;;;;;;;;;;;;;9.43;100.00;102117.63;4930622;28;21781;-80
2023/10/17 11:52:51;;;;;;;;;;;;;;;9.44;100.00;102122.03;4935318;29;19943;-80
2023/10/17 11:55:45;;;;;;;;;;;;;;;9.44;100.00;102117.63;4934973;29;19961;-79
2023/10/17 11:58:32;;;;;;;;;;;;;;;9.47;100.00;102116.66;4936255;29;19954;-80
2023/10/17 12:01:20;;;;;;;;;;;;;;;9.46;100.00;102117.56;4934034;29;19933;-79
2023/10/17 12:04:06;;;;;;;;;;;;;;;9.47;100.00;102129.88;4937532;29;20658;-79
2023/10/17 12:06:52;;;;;;;;;;;;;;;9.48;100.00;102119.28;4928556;28;19958;-79
2023/10/17 12:09:37;;;;;;;;;;;;;;;9.51;100.00;102121.00;4936488;29;19935;-79
2023/10/17 12:12:23;;;;;;;;;;;;;;;9.57;100.00;102125.28;4937242;29;21876;-79
2023/10/17 12:15:13;;;;;;;;;;;;;;;9.59;100.00;102116.41;4926661;29;19930;-79
2023/10/17 12:17:59;;;;;;;;;;;;;;;9.60;100.00;102115.50;4937484;29;19931;-79
2023/10/17 12:20:49;;;;;;;;;;;;;;;9.68;100.00;102117.13;4936219;29;20488;-79
2023/10/17 12:23:34;;;;;;;;;;;;;;;9.68;100.00;102103.88;4924717;29;19989;-79
2023/10/17 12:26:26;;;;;;;;;;;;;;;9.65;100.00;102100.41;4926813;29;19966;-79
2023/10/17 12:29:12;;;;;;;;;;;;;;;9.64;100.00;102098.69;4938748;29;19930;-79
2023/10/17 12:31:59;;;;;;;;;;;;;;;9.64;100.00;102089.88;4938540;28;19927;-80
2023/10/17 12:34:46;;;;;;;;;;;;;;;9.69;100.00;102081.84;4926790;29;19931;-79
2023/10/17 12:37:43;;;;;;;;;;;;;;;9.71;100.00;102078.28;4933632;29;21831;-79
2023/10/17 12:40:38;;;;;;;;;;;;;;;9.71;100.00;102069.47;4908246;29;19930;-80
2023/10/17 12:43:27;;;;;;;;;;;;;;;9.69;100.00;102079.22;4932341;29;20032;-79
2023/10/17 12:46:12;;;;;;;;;;;;;;;9.67;100.00;102081.88;4933557;29;19931;-80
2023/10/17 12:48:58;;;;;;;;;;;;;;;9.71;100.00;102077.41;4932001;29;19927;-80
2023/10/17 12:51:47;;;;;;;;;;;;;;;9.71;100.00;102073.00;4921274;29;20681;-80
2023/10/17 12:54:33;;;;;;;;;;;;;;;9.70;100.00;102076.50;4937298;28;19930;-80
2023/10/17 12:57:19;;;;;;;;;;;;;;;9.72;100.00;102074.72;4937109;29;19926;-81
2023/10/17 13:00:11;;;;;;;;;;;;;;;9.80;100.00;102071.03;4923553;29;19927;-80
2023/10/17 13:02:57;;;;;;;;;;;;;;;9.83;100.00;102065.66;4924911;29;19956;-80
2023/10/17 13:05:43;;;;;;;;;;;;;;;9.82;100.00;102062.16;4924219;29;19937;-80
2023/10/17 13:08:31;;;;;;;;;;;;;;;9.81;100.00;102057.75;4938796;29;20302;-80
2023/10/17 13:11:17;;;;;;;;;;;;;;;9.79;100.00;102049.00;4938312;29;19931;-80
2023/10/17 13:14:02;;;;;;;;;;;;;;;9.80;100.00;102042.78;4938359;28;19974;-81
2023/10/17 13:16:48;;;;;;;;;;;;;;;9.83;100.00;102034.81;4921513;29;19974;-80
2023/10/17 13:19:39;;;;;;;;;;;;;;;9.84;100.00;102031.25;4933722;29;20413;-80
2023/10/17 13:22:26;;;;;;;;;;;;;;;9.82;100.00;102027.78;4931953;29;19930;-79
2023/10/17 13:25:12;;;;;;;;;;;;;;;9.85;100.00;102025.06;4933071;29;19926;-79
2023/10/17 13:28:00;;;;;;;;;;;;;;;9.85;100.00;102019.75;4934769;28;19938;-79
2023/10/17 13:30:46;;;;;;;;;;;;;;;9.85;100.00;102021.53;4934358;28;19942;-78
2023/10/17 13:33:32;;;;;;;;;;;;;;;9.86;100.00;102015.34;4926038;29;19933;-78
2023/10/17 13:36:17;;;;;;;;;;;;;;;9.86;100.00;102013.56;4935541;29;20411;-78
2023/10/17 13:39:11;;;;;;;;;;;;;;;9.88;100.00;102002.94;4935462;28;19937;-79
2023/10/17 13:41:56;;;;;;;;;;;;;;;9.88;100.00;102000.31;4919224;28;20401;-80
2023/10/17 13:44:42;;;;;;;;;;;;;;;9.86;100.00;101992.41;4933192;29;19941;-80
2023/10/17 13:47:29;;;;;;;;;;;;;;;9.81;100.00;101991.63;4919875;29;20441;-80
2023/10/17 13:50:21;;;;;;;;;;;;;;;9.82;100.00;101993.41;4934234;29;19934;-79
2023/10/17 13:53:07;;;;;;;;;;;;;;;9.85;100.00;101985.38;4925118;29;19978;-79
2023/10/17 13:55:52;;;;;;;;;;;;;;;9.88;100.00;101992.38;4932981;28;19939;-79
2023/10/17 13:58:41;;;;;;;;;;;;;;;9.88;100.00;101985.31;4933780;29;19926;-79
2023/10/17 14:01:27;;;;;;;;;;;;;;;9.89;100.00;101981.75;4933106;28;19981;-79
2023/10/17 14:04:13;;;;;;;;;;;;;;;9.91;100.00;101974.66;4930228;29;20017;-80
2023/10/17 14:06:58;;;;;;;;;;;;;;;9.90;100.00;101978.19;4918790;29;19930;-80
2023/10/17 14:09:47;;;;;;;;;;;;;;;9.88;100.00;101977.38;4913667;29;19934;-80
2023/10/17 14:12:32;;;;;;;;;;;;;;;9.86;100.00;101971.22;4919495;29;20061;-80
2023/10/17 14:15:18;;;;;;;;;;;;;;;9.83;100.00;101968.69;4919055;29;20366;-80
2023/10/17 14:18:13;;;;;;;;;;;;;;;9.85;100.00;101958.94;4909476;29;19970;-80
2023/10/17 14:21:09;;;;;;;;;;;;;;;9.86;100.00;101957.16;4898361;29;19943;-80
2023/10/17 14:23:57;;;;;;;;;;;;;;;9.88;100.00;101947.41;4909915;29;19959;-80
2023/10/17 14:26:48;;;;;;;;;;;;;;;9.87;100.00;101953.59;4897703;29;19938;-79
2023/10/17 14:29:35;;;;;;;;;;;;;;;9.86;100.00;101949.22;4898008;29;19923;-79
2023/10/17 14:32:21;;;;;;;;;;;;;;;9.85;100.00;101940.41;4898127;29;20382;-79
2023/10/17 14:35:07;;;;;;;;;;;;;;;9.85;100.00;101937.75;4884201;29;19995;-79
2023/10/17 14:37:55;;;;;;;;;;;;;;;9.83;100.00;101936.94;4897320;29;19942;-79
2023/10/17 14:40:42;;;;;;;;;;;;;;;9.82;100.00;101937.84;4898442;29;19931;-79
2023/10/17 14:43:27;;;;;;;;;;;;;;;9.82;100.00;101935.22;4888509;29;20058;-79
2023/10/17 14:46:14;;;;;;;;;;;;;;;9.81;100.00;101932.59;4899076;29;19935;-79
2023/10/17 14:49:01;;;;;;;;;;;;;;;9.78;100.00;101934.41;4896379;29;19931;-79
2023/10/17 14:51:47;;;;;;;;;;;;;;;9.79;100.00;101940.56;4897894;29;19939;-80
2023/10/17 14:54:34;;;;;;;;;;;;;;;9.76;100.00;101944.16;4908705;29;19937;-80
2023/10/17 14:57:20;;;;;;;;;;;;;;;9.76;100.00;101941.50;4899529;29;19982;-80
2023/10/17 15:00:34;;;;;;;;;;;;;;;9.76;100.00;101938.84;4901246;29;20296;-81
2023/10/17 15:03:20;;;;;;;;;;;;;;;9.73;100.00;101944.22;4906222;29;19923;-80
2023/10/17 15:06:09;;;;;;;;;;;;;;;9.71;100.00;101934.59;4897847;29;20022;-79
2023/10/17 15:08:55;;;;;;;;;;;;;;;9.71;100.00;101939.88;4895821;28;19955;-79
2023/10/17 15:11:40;;;;;;;;;;;;;;;9.67;100.00;101949.66;4898765;29;19931;-79
2023/10/17 15:14:26;;;;;;;;;;;;;;;9.65;100.00;101947.06;4902336;29;21100;-79
2023/10/17 15:17:12;;;;;;;;;;;;;;;9.61;100.00;101948.03;4912044;29;19942;-78
2023/10/17 15:19:57;;;;;;;;;;;;;;;9.57;100.00;101949.00;4919308;29;20058;-79
2023/10/17 15:22:44;;;;;;;;;;;;;;;9.55;100.00;101936.72;4935547;29;19926;-79
2023/10/17 15:25:33;;;;;;;;;;;;;;;9.51;100.00;101946.50;4907644;29;19930;-79
2023/10/17 15:28:26;;;;;;;;;;;;;;;9.51;100.00;101938.59;4937186;28;20489;-80
2023/10/17 15:31:12;;;;;;;;;;;;;;;9.51;100.00;101936.81;4936686;29;19926;-80
2023/10/17 15:33:59;;;;;;;;;;;;;;;9.48;100.00;101938.66;4923190;29;19931;-79
2023/10/17 15:36:45;;;;;;;;;;;;;;;9.45;100.00;101939.59;4937120;28;19953;-79
2023/10/17 15:39:31;;;;;;;;;;;;;;;9.44;100.00;101939.63;4935642;29;19926;-81
2023/10/17 15:42:17;;;;;;;;;;;;;;;9.41;100.00;101923.84;4939051;29;22067;-80
2023/10/17 15:45:05;;;;;;;;;;;;;;;9.37;100.00;101921.28;4939400;29;19937;-80
2023/10/17 15:47:56;;;;;;;;;;;;;;;9.35;100.00;101923.09;4910303;29;20052;-79
2023/10/17 15:50:42;;;;;;;;;;;;;;;9.30;100.00;101924.06;4929867;28;22042;-79
2023/10/17 15:53:29;;;;;;;;;;;;;;;9.28;100.00;101926.78;4935557;28;19981;-79
2023/10/17 15:56:14;;;;;;;;;;;;;;;9.28;100.00;101931.19;4938298;28;19938;-79
2023/10/17 15:59:03;;;;;;;;;;;;;;;9.26;100.00;101933.84;4911242;29;19930;-80
2023/10/17 16:01:56;;;;;;;;;;;;;;;9.23;100.00;101931.28;4904171;29;19937;-81
2023/10/17 16:04:42;;;;;;;;;;;;;;;9.19;100.00;101929.59;4920041;29;20679;-80
2023/10/17 16:07:28;;;;;;;;;;;;;;;9.15;100.00;101928.81;4934870;29;19930;-80
2023/10/17 16:10:17;;;;;;;;;;;;;;;9.12;100.00;101930.66;4918035;29;20059;-81
2023/10/17 16:13:03;;;;;;;;;;;;;;;9.07;100.00;101931.63;4919107;29;19942;-79
2023/10/17 16:15:50;;;;;;;;;;;;;;;9.06;100.00;101935.16;4919257;29;20257;-79
2023/10/17 16:18:37;;;;;;;;;;;;;;;9.01;100.00;101923.84;4927105;28;20689;-79
2023/10/17 16:21:24;;;;;;;;;;;;;;;8.96;100.00;101930.97;4927844;29;20394;-79